createdAt,value
2022-12-14T00:01:57.388Z,61.39
2022-12-14T00:04:25.244Z,62.30
2022-12-14T00:06:53.122Z,63.76
2022-12-14T00:09:21.198Z,59.46
2022-12-14T00:11:49.046Z,54.36
2022-12-14T00:14:16.874Z,55.08
2022-12-14T00:16:44.717Z,57.03
2022-12-14T00:19:12.651Z,58.90
2022-12-14T00:21:43.178Z,60.46
2022-12-14T00:24:11.081Z,61.45
2022-12-14T00:26:39.051Z,63.43
2022-12-14T00:29:07.037Z,61.78
2022-12-14T00:31:35.256Z,54.69
2022-12-14T00:34:03.132Z,54.48
2022-12-14T00:36:31.716Z,57.11
2022-12-14T00:38:59.906Z,59.18
2022-12-14T00:41:28.005Z,60.55
2022-12-14T00:43:55.868Z,62.12
2022-12-14T00:46:23.868Z,63.74
2022-12-14T00:48:51.777Z,59.97
2022-12-14T00:51:19.688Z,54.19
2022-12-14T00:53:47.508Z,55.14
2022-12-14T00:56:15.294Z,57.53
2022-12-14T00:58:43.127Z,59.46
2022-12-14T01:01:13.706Z,60.69
2022-12-14T01:03:42.024Z,61.96
2022-12-14T01:06:18.792Z,63.90
2022-12-14T01:08:47.945Z,60.78
2022-12-14T01:11:15.907Z,54.47
2022-12-14T01:13:43.959Z,55.09
2022-12-14T01:16:14.487Z,57.83
2022-12-14T01:18:43.614Z,59.58
2022-12-14T01:21:18.262Z,61.19
2022-12-14T01:23:48.374Z,63.63
2022-12-14T01:26:17.782Z,60.37
2022-12-14T01:28:47.338Z,54.67
2022-12-14T01:31:18.228Z,55.63
2022-12-14T01:33:46.715Z,58.04
2022-12-14T01:36:18.730Z,59.81
2022-12-14T01:38:47.525Z,61.40
2022-12-14T01:41:31.301Z,61.97
2022-12-14T01:44:21.754Z,64.34
2022-12-14T01:47:00.900Z,60.72
2022-12-14T01:49:35.074Z,54.64
2022-12-14T01:52:12.227Z,55.28
2022-12-14T01:54:48.924Z,57.71
2022-12-14T01:57:17.816Z,59.53
2022-12-14T01:59:47.316Z,60.94
2022-12-14T02:02:16.754Z,62.66
2022-12-14T02:04:51.084Z,61.75
2022-12-14T02:07:18.860Z,54.90
2022-12-14T02:09:48.271Z,54.70
2022-12-14T02:12:20.936Z,56.96
2022-12-14T02:14:48.804Z,59.08
2022-12-14T02:17:16.889Z,60.64
2022-12-14T02:19:49.438Z,61.97
2022-12-14T02:23:03.974Z,63.69
2022-12-14T02:25:49.300Z,59.47
2022-12-14T02:29:18.259Z,54.89
2022-12-14T02:32:04.669Z,57.17
2022-12-14T02:34:35.430Z,59.13
2022-12-14T02:37:15.800Z,60.66
2022-12-14T02:40:06.038Z,62.04
2022-12-14T02:42:54.555Z,63.40
2022-12-14T02:45:28.408Z,56.93
2022-12-14T02:48:09.577Z,54.48
2022-12-14T02:51:33.576Z,56.82
2022-12-14T02:54:17.016Z,59.12
2022-12-14T02:56:50.318Z,60.86
2022-12-14T02:59:18.657Z,62.19
2022-12-14T03:01:48.176Z,63.95
2022-12-14T03:04:16.928Z,60.19
2022-12-14T03:07:03.184Z,55.30
2022-12-14T03:09:31.923Z,56.53
2022-12-14T03:12:07.726Z,58.46
2022-12-14T03:14:47.899Z,60.27
2022-12-14T03:17:19.996Z,61.86
2022-12-14T03:20:16.366Z,63.94
2022-12-14T03:22:52.795Z,60.15
2022-12-14T03:25:46.279Z,54.88
2022-12-14T03:28:22.207Z,55.90
2022-12-14T03:31:00.395Z,58.18
2022-12-14T03:33:30.737Z,60.32
2022-12-14T03:36:33.122Z,61.19
2022-12-14T03:39:03.398Z,62.46
2022-12-14T03:41:59.039Z,64.46
2022-12-14T03:44:39.055Z,59.77
2022-12-14T03:47:20.303Z,53.40
2022-12-14T03:50:04.603Z,54.59
2022-12-14T03:52:41.917Z,56.91
2022-12-14T03:55:26.817Z,58.83
2022-12-14T03:58:22.718Z,60.57
2022-12-14T04:00:59.493Z,62.07
2022-12-14T04:03:34.219Z,64.13
2022-12-14T04:07:02.225Z,61.30
2022-12-14T04:09:44.614Z,52.69
2022-12-14T04:12:38.896Z,54.26
2022-12-14T04:15:34.513Z,57.15
2022-12-14T04:18:26.360Z,59.81
2022-12-14T04:21:00.349Z,61.33
2022-12-14T04:24:03.560Z,62.13
2022-12-14T04:26:45.794Z,64.00
2022-12-14T04:29:36.741Z,58.47
2022-12-14T04:32:12.405Z,51.95
2022-12-14T04:34:43.082Z,54.00
2022-12-14T04:37:15.819Z,56.56
2022-12-14T04:39:55.198Z,58.54
2022-12-14T04:42:29.907Z,59.97
2022-12-14T04:45:05.525Z,61.36
2022-12-14T04:47:37.046Z,63.36
2022-12-14T04:50:34.901Z,61.64
2022-12-14T04:53:12.109Z,52.87
2022-12-14T04:55:49.233Z,53.31
2022-12-14T04:58:22.928Z,55.76
2022-12-14T05:01:13.901Z,57.73
2022-12-14T05:03:57.078Z,59.38
2022-12-14T05:06:44.573Z,60.58
2022-12-14T05:09:24.983Z,61.75
2022-12-14T05:12:13.615Z,63.61
2022-12-14T05:15:23.634Z,59.53
2022-12-14T05:17:52.750Z,51.90
2022-12-14T05:20:24.051Z,53.82
2022-12-14T05:22:51.939Z,56.45
2022-12-14T05:25:19.683Z,58.08
2022-12-14T05:27:47.664Z,59.49
2022-12-14T05:30:17.633Z,60.70
2022-12-14T05:32:45.499Z,62.08
2022-12-14T05:35:14.518Z,63.63
2022-12-14T05:37:43.058Z,57.83
2022-12-14T05:40:12.047Z,53.56
2022-12-14T05:42:44.674Z,55.80
2022-12-14T05:45:14.742Z,58.31
2022-12-14T05:47:42.653Z,60.31
2022-12-14T05:50:10.478Z,61.67
2022-12-14T05:52:38.325Z,62.34
2022-12-14T05:55:07.011Z,64.60
2022-12-14T05:57:34.806Z,59.65
2022-12-14T06:00:04.928Z,51.64
2022-12-14T06:02:32.967Z,52.85
2022-12-14T06:05:00.917Z,55.80
2022-12-14T06:07:28.715Z,58.37
2022-12-14T06:09:56.629Z,60.15
2022-12-14T06:12:24.657Z,61.20
2022-12-14T06:14:52.760Z,62.67
2022-12-14T06:17:20.630Z,63.16
2022-12-14T06:19:50.409Z,56.77
2022-12-14T06:22:19.029Z,54.33
2022-12-14T06:24:46.863Z,56.81
2022-12-14T06:27:14.808Z,58.95
2022-12-14T06:29:42.756Z,60.39
2022-12-14T06:32:10.487Z,61.99
2022-12-14T06:34:40.754Z,63.83
2022-12-14T06:37:10.036Z,60.28
2022-12-14T06:39:37.768Z,53.52
2022-12-14T06:42:05.931Z,53.73
2022-12-14T06:44:33.817Z,56.07
2022-12-14T06:47:01.743Z,58.04
2022-12-14T06:49:29.839Z,59.70
2022-12-14T06:51:57.590Z,60.75
2022-12-14T06:54:25.395Z,61.90
2022-12-14T06:56:53.138Z,63.53
2022-12-14T06:59:21.075Z,62.82
2022-12-14T07:01:49.991Z,53.82
2022-12-14T07:04:21.134Z,52.21
2022-12-14T07:06:49.295Z,54.44
2022-12-14T07:09:17.132Z,56.87
2022-12-14T07:11:44.893Z,58.63
2022-12-14T07:14:17.500Z,60.01
2022-12-14T07:16:48.604Z,61.48
2022-12-14T07:19:18.192Z,63.53
2022-12-14T07:21:46.010Z,59.23
2022-12-14T07:24:14.372Z,50.75
2022-12-14T07:26:42.296Z,52.10
2022-12-14T07:29:12.120Z,55.04
2022-12-14T07:31:40.413Z,57.23
2022-12-14T07:34:12.446Z,59.07
2022-12-14T07:36:40.365Z,60.65
2022-12-14T07:39:12.739Z,61.60
2022-12-14T07:41:40.695Z,63.98
2022-12-14T07:44:09.484Z,58.87
2022-12-14T07:46:37.987Z,54.16
2022-12-14T07:49:06.317Z,55.67
2022-12-14T07:51:37.589Z,57.97
2022-12-14T07:54:06.858Z,60.13
2022-12-14T07:56:38.409Z,61.37
2022-12-14T07:59:10.719Z,63.21
2022-12-14T08:01:39.260Z,62.34
2022-12-14T08:04:17.034Z,54.52
2022-12-14T08:06:46.992Z,53.02
2022-12-14T08:09:15.770Z,55.90
2022-12-14T08:11:44.017Z,58.42
2022-12-14T08:14:17.421Z,60.40
2022-12-14T08:16:46.910Z,61.65
2022-12-14T08:19:15.757Z,63.34
2022-12-14T08:21:45.436Z,61.59
2022-12-14T08:24:13.961Z,53.75
2022-12-14T08:26:41.729Z,53.65
2022-12-14T08:29:11.953Z,56.63
2022-12-14T08:31:39.888Z,58.82
2022-12-14T08:34:07.690Z,61.16
2022-12-14T08:36:35.845Z,62.32
2022-12-14T08:39:07.171Z,63.44
2022-12-14T08:41:35.707Z,59.73
2022-12-14T08:44:04.027Z,52.51
2022-12-14T08:46:34.175Z,53.94
2022-12-14T08:49:02.152Z,56.77
2022-12-14T08:51:30.115Z,58.91
2022-12-14T08:53:58.429Z,61.30
2022-12-14T08:56:27.886Z,62.83
2022-12-14T08:58:57.167Z,59.38
2022-12-14T09:01:33.294Z,53.59
2022-12-14T09:04:07.839Z,55.17
2022-12-14T09:06:39.202Z,58.00
2022-12-14T09:09:15.642Z,60.68
2022-12-14T09:11:45.407Z,61.92
2022-12-14T09:14:13.380Z,63.45
2022-12-14T09:16:41.393Z,58.53
2022-12-14T09:19:09.262Z,53.54
2022-12-14T09:21:38.545Z,55.65
2022-12-14T09:24:06.970Z,57.91
2022-12-14T09:26:34.837Z,59.68
2022-12-14T09:29:02.787Z,61.41
2022-12-14T09:31:30.647Z,63.35
2022-12-14T09:33:58.530Z,59.34
2022-12-14T09:36:28.551Z,54.90
2022-12-14T09:38:57.849Z,56.51
2022-12-14T09:41:35.028Z,58.63
2022-12-14T09:44:45.040Z,60.29
2022-12-14T09:47:33.068Z,61.95
2022-12-14T09:50:12.484Z,63.67
2022-12-14T09:52:51.538Z,59.07
2022-12-14T09:55:46.742Z,53.68
2022-12-14T09:58:20.776Z,55.83
2022-12-14T10:01:13.929Z,57.74
2022-12-14T10:04:19.432Z,58.79
2022-12-14T10:06:47.260Z,60.21
2022-12-14T10:09:18.067Z,60.89
2022-12-14T10:12:23.354Z,61.27
2022-12-14T10:15:12.358Z,61.66
2022-12-14T10:18:57.089Z,62.12
2022-12-14T10:21:21.122Z,62.25
2022-12-14T10:24:00.128Z,62.26
2022-12-14T10:26:35.198Z,63.02
2022-12-14T10:29:27.807Z,56.88
2022-12-14T10:32:19.619Z,54.34
2022-12-14T10:34:48.486Z,55.32
2022-12-14T10:37:37.937Z,56.08
2022-12-14T10:40:14.561Z,56.26
2022-12-14T10:43:12.247Z,56.50
2022-12-14T10:45:47.224Z,56.75
2022-12-14T10:48:43.405Z,57.18
2022-12-14T10:51:38.067Z,57.47
2022-12-14T10:54:39.123Z,57.06
2022-12-14T10:57:07.016Z,55.98
2022-12-14T10:59:42.407Z,55.22
2022-12-14T11:02:17.549Z,55.01
2022-12-14T11:04:58.956Z,54.35
2022-12-14T11:07:39.394Z,54.20
2022-12-14T11:10:22.455Z,52.70
2022-12-14T11:13:17.595Z,51.42
2022-12-14T11:15:52.637Z,50.84
2022-12-14T11:18:31.399Z,50.88
2022-12-14T11:21:05.566Z,50.34
2022-12-14T11:23:39.019Z,50.10
2022-12-14T11:26:15.439Z,49.65
2022-12-14T11:28:43.439Z,49.21
2022-12-14T11:31:21.094Z,48.94
2022-12-14T11:33:54.947Z,49.47
2022-12-14T11:36:40.421Z,50.15
2022-12-14T11:39:14.439Z,51.20
2022-12-14T11:41:45.181Z,51.85
2022-12-14T11:44:15.973Z,52.59
2022-12-14T11:46:56.471Z,53.49
2022-12-14T11:49:39.729Z,54.35
2022-12-14T11:52:22.447Z,55.53
2022-12-14T11:54:54.195Z,56.18
2022-12-14T11:57:46.091Z,56.73
2022-12-14T12:00:20.397Z,57.63
2022-12-14T12:02:56.914Z,58.17
2022-12-14T12:05:24.937Z,58.90
2022-12-14T12:07:57.221Z,59.77
2022-12-14T12:10:40.382Z,60.60
2022-12-14T12:13:28.050Z,60.88
2022-12-14T12:16:02.159Z,61.67
2022-12-14T12:18:46.261Z,62.04
2022-12-14T12:21:17.633Z,61.08
2022-12-14T12:24:13.047Z,54.25
2022-12-14T12:26:49.806Z,55.83
2022-12-14T12:29:40.714Z,57.98
2022-12-14T12:32:20.347Z,59.13
2022-12-14T12:35:15.849Z,60.43
2022-12-14T12:38:08.122Z,60.91
2022-12-14T12:40:55.210Z,61.55
2022-12-14T12:43:34.107Z,61.91
2022-12-14T12:46:12.474Z,63.16
2022-12-14T12:48:47.071Z,59.05
2022-12-14T12:51:22.887Z,55.12
2022-12-14T12:53:56.798Z,56.84
2022-12-14T12:56:49.357Z,58.53
2022-12-14T12:59:33.215Z,59.41
2022-12-14T13:02:26.520Z,61.10
2022-12-14T13:04:55.245Z,61.64
2022-12-14T13:07:33.358Z,64.06
2022-12-14T13:10:13.549Z,59.76
2022-12-14T13:13:10.312Z,52.96
2022-12-14T13:15:51.006Z,54.48
2022-12-14T13:18:55.995Z,56.88
2022-12-14T13:21:32.320Z,58.87
2022-12-14T13:24:00.659Z,60.36
2022-12-14T13:26:59.102Z,61.44
2022-12-14T13:30:00.391Z,62.43
2022-12-14T13:33:01.368Z,54.16
2022-12-14T13:36:12.938Z,55.08
2022-12-14T13:39:02.366Z,57.44
2022-12-14T13:42:15.574Z,59.66
2022-12-14T13:44:59.779Z,60.70
2022-12-14T13:47:44.991Z,62.43
2022-12-14T13:50:49.838Z,60.88
2022-12-14T13:53:50.495Z,52.92
2022-12-14T13:56:39.950Z,55.15
2022-12-14T13:59:40.213Z,57.74
2022-12-14T14:02:28.201Z,59.26
2022-12-14T14:05:14.728Z,60.42
2022-12-14T14:07:58.965Z,62.01
2022-12-14T14:10:41.841Z,63.69
2022-12-14T14:13:28.130Z,58.84
2022-12-14T14:16:27.583Z,53.04
2022-12-14T14:19:11.370Z,55.01
2022-12-14T14:22:21.712Z,57.47
2022-12-14T14:25:00.635Z,59.72
2022-12-14T14:27:51.271Z,60.45
2022-12-14T14:30:35.538Z,61.16
2022-12-14T14:33:47.277Z,62.70
2022-12-14T14:36:30.988Z,61.90
2022-12-14T14:39:01.743Z,54.55
2022-12-14T14:41:50.940Z,54.33
2022-12-14T14:44:35.015Z,56.50
2022-12-14T14:47:07.527Z,58.46
2022-12-14T14:49:40.488Z,59.32
2022-12-14T14:52:39.395Z,60.16
2022-12-14T14:55:51.973Z,61.18
2022-12-14T14:58:28.549Z,63.05
2022-12-14T15:01:21.979Z,60.10
2022-12-14T15:03:59.724Z,54.10
2022-12-14T15:06:42.894Z,55.45
2022-12-14T15:09:13.480Z,57.63
2022-12-14T15:11:52.630Z,58.77
2022-12-14T15:14:48.319Z,60.27
2022-12-14T15:17:19.634Z,61.55
2022-12-14T15:19:57.651Z,62.96
2022-12-14T15:22:41.024Z,59.59
2022-12-14T15:25:27.169Z,54.22
2022-12-14T15:27:56.437Z,56.19
2022-12-14T15:30:29.051Z,58.07
2022-12-14T15:33:08.666Z,59.78
2022-12-14T15:35:39.889Z,60.97
2022-12-14T15:38:31.037Z,61.73
2022-12-14T15:41:03.430Z,64.66
2022-12-14T15:43:32.216Z,57.47
2022-12-14T15:46:05.004Z,55.08
2022-12-14T15:48:34.998Z,57.09
2022-12-14T15:51:21.536Z,59.18
2022-12-14T15:53:51.844Z,60.09
2022-12-14T15:56:37.082Z,61.52
2022-12-14T15:59:14.894Z,63.19
2022-12-14T16:01:51.744Z,60.27
2022-12-14T16:04:23.711Z,54.45
2022-12-14T16:07:08.649Z,55.20
2022-12-14T16:09:41.993Z,57.43
2022-12-14T16:12:45.409Z,59.27
2022-12-14T16:15:24.616Z,59.95
2022-12-14T16:18:00.951Z,61.25
2022-12-14T16:20:34.313Z,63.61
2022-12-14T16:23:05.461Z,59.40
2022-12-14T16:25:35.792Z,54.08
2022-12-14T16:28:33.883Z,55.28
2022-12-14T16:31:11.353Z,57.56
2022-12-14T16:33:42.152Z,59.32
2022-12-14T16:36:22.718Z,60.46
2022-12-14T16:39:04.714Z,62.18
2022-12-14T16:41:42.759Z,62.99
2022-12-14T16:44:23.564Z,56.61
2022-12-14T16:47:00.611Z,55.30
2022-12-14T16:49:40.457Z,57.38
2022-12-14T16:52:26.375Z,59.16
2022-12-14T16:55:16.339Z,60.49
2022-12-14T16:58:00.589Z,61.79
2022-12-14T17:00:34.111Z,63.10
2022-12-14T17:03:20.819Z,61.04
2022-12-14T17:05:55.759Z,54.05
2022-12-14T17:08:23.535Z,54.75
2022-12-14T17:10:51.557Z,57.35
2022-12-14T17:13:19.369Z,58.82
2022-12-14T17:16:01.275Z,59.81
2022-12-14T17:18:39.309Z,61.39
2022-12-14T17:21:10.254Z,62.01
2022-12-14T17:23:39.040Z,63.90
2022-12-14T17:26:17.092Z,60.54
2022-12-14T17:28:44.988Z,53.89
2022-12-14T17:31:17.934Z,54.84
2022-12-14T17:33:45.920Z,57.52
2022-12-14T17:36:13.760Z,59.10
2022-12-14T17:38:41.552Z,60.05
2022-12-14T17:41:22.812Z,60.92
2022-12-14T17:43:56.637Z,63.42
2022-12-14T17:46:25.595Z,60.90
2022-12-14T17:48:53.679Z,55.57
2022-12-14T17:51:28.966Z,55.58
2022-12-14T17:53:58.650Z,57.48
2022-12-14T17:56:26.607Z,59.08
2022-12-14T17:58:54.364Z,59.92
2022-12-14T18:01:25.472Z,61.16
2022-12-14T18:03:53.643Z,61.82
2022-12-14T18:06:21.525Z,63.62
2022-12-14T18:08:49.632Z,61.28
2022-12-14T18:11:22.220Z,54.28
2022-12-14T18:13:50.476Z,53.50
2022-12-14T18:16:22.206Z,55.81
2022-12-14T18:18:51.112Z,57.60
2022-12-14T18:21:22.696Z,58.78
2022-12-14T18:23:50.711Z,60.23
2022-12-14T18:26:22.780Z,60.88
2022-12-14T18:28:53.908Z,61.53
2022-12-14T18:31:37.084Z,63.36
2022-12-14T18:34:05.491Z,61.52
2022-12-14T18:36:33.603Z,55.14
2022-12-14T18:39:01.341Z,54.39
2022-12-14T18:41:30.740Z,56.34
2022-12-14T18:44:00.665Z,57.76
2022-12-14T18:46:28.583Z,59.26
2022-12-14T18:48:56.690Z,60.23
2022-12-14T18:51:26.690Z,60.99
2022-12-14T18:53:57.378Z,61.95
2022-12-14T18:56:28.164Z,63.57
2022-12-14T18:58:56.425Z,59.89
2022-12-14T19:01:25.018Z,55.07
2022-12-14T19:03:52.997Z,54.91
2022-12-14T19:09:14.169Z,58.47
2022-12-14T19:11:42.430Z,59.40
2022-12-14T19:14:10.819Z,60.38
2022-12-14T19:16:38.737Z,62.68
2022-12-14T19:19:06.802Z,62.26
2022-12-14T19:21:34.834Z,55.48
2022-12-14T19:24:02.647Z,53.42
2022-12-14T19:26:30.855Z,55.39
2022-12-14T19:28:58.698Z,57.03
2022-12-14T19:31:26.676Z,57.83
2022-12-14T19:33:54.554Z,58.73
2022-12-14T19:36:22.580Z,59.91
2022-12-14T19:38:50.744Z,60.94
2022-12-14T19:41:20.643Z,61.61
2022-12-14T19:43:48.900Z,63.26
2022-12-14T19:46:17.931Z,62.78
2022-12-14T19:48:46.229Z,55.50
2022-12-14T19:51:14.712Z,53.72
2022-12-14T19:53:44.047Z,55.81
2022-12-14T19:56:15.597Z,57.70
2022-12-14T19:58:44.151Z,58.92
2022-12-14T20:01:17.965Z,59.61
2022-12-14T20:04:00.234Z,60.39
2022-12-14T20:06:28.326Z,61.77
2022-12-14T20:09:02.026Z,62.17
2022-12-14T20:11:29.834Z,64.36
2022-12-14T20:14:02.930Z,62.34
2022-12-14T20:16:33.494Z,55.25
2022-12-14T20:19:02.028Z,54.19
2022-12-14T20:21:30.115Z,55.99
2022-12-14T20:23:58.917Z,57.66
2022-12-14T20:26:29.179Z,58.93
2022-12-14T20:29:05.872Z,60.16
2022-12-14T20:31:35.641Z,61.08
2022-12-14T20:34:05.619Z,63.13
2022-12-14T20:36:33.453Z,61.72
2022-12-14T20:39:01.975Z,55.09
2022-12-14T20:41:31.764Z,53.62
2022-12-14T20:44:02.133Z,55.58
2022-12-14T20:46:39.673Z,57.23
2022-12-14T20:49:15.715Z,58.62
2022-12-14T20:51:45.131Z,60.38
2022-12-14T20:54:18.961Z,61.48
2022-12-14T20:56:49.035Z,61.66
2022-12-14T20:59:17.989Z,63.35
2022-12-14T21:01:51.759Z,62.35
2022-12-14T21:04:21.786Z,55.28
2022-12-14T21:06:49.647Z,54.09
2022-12-14T21:09:17.452Z,56.00
2022-12-14T21:12:07.360Z,57.72
2022-12-14T21:14:44.825Z,59.34
2022-12-14T21:17:13.987Z,60.47
2022-12-14T21:19:41.871Z,61.60
2022-12-14T21:22:14.216Z,63.91
2022-12-14T21:25:02.285Z,61.94
2022-12-14T21:27:30.464Z,54.73
2022-12-14T21:30:00.059Z,54.20
2022-12-14T21:32:28.352Z,56.25
2022-12-14T21:34:56.294Z,57.49
2022-12-14T21:37:24.249Z,58.96
2022-12-14T21:39:54.822Z,60.22
2022-12-14T21:42:24.461Z,61.49
2022-12-14T21:44:53.958Z,63.75
2022-12-14T21:47:26.155Z,62.23
2022-12-14T21:49:54.487Z,55.43
2022-12-14T21:52:25.254Z,53.88
2022-12-14T21:54:53.328Z,56.04
2022-12-14T21:57:49.783Z,57.78
2022-12-14T22:00:19.500Z,59.35
2022-12-14T22:02:47.531Z,60.86
2022-12-14T22:05:15.549Z,61.72
2022-12-14T22:07:43.600Z,64.20
2022-12-14T22:10:11.586Z,60.11
2022-12-14T22:12:39.452Z,54.07
2022-12-14T22:15:08.342Z,54.77
2022-12-14T22:17:36.205Z,56.76
2022-12-14T22:20:04.696Z,58.73
2022-12-14T22:22:33.488Z,60.22
2022-12-14T22:25:01.504Z,61.49
2022-12-14T22:27:29.361Z,62.69
2022-12-14T22:29:57.182Z,64.00
2022-12-14T22:32:25.240Z,58.70
2022-12-14T22:34:53.085Z,53.42
2022-12-14T22:37:21.933Z,54.72
2022-12-14T22:39:49.993Z,56.82
2022-12-14T22:42:17.905Z,58.61
2022-12-14T22:44:45.821Z,60.23
2022-12-14T22:47:13.692Z,61.13
2022-12-14T22:49:41.545Z,63.50
2022-12-14T22:52:09.645Z,62.48
2022-12-14T22:54:39.203Z,55.42
2022-12-14T22:57:12.454Z,54.07
2022-12-14T22:59:56.678Z,56.47
2022-12-14T23:02:24.730Z,58.63
2022-12-14T23:04:52.822Z,59.95
2022-12-14T23:07:20.683Z,61.07
2022-12-14T23:10:07.086Z,62.17
2022-12-14T23:12:53.432Z,64.32
2022-12-14T23:15:40.135Z,58.85
2022-12-14T23:18:27.031Z,53.53
2022-12-14T23:21:13.633Z,55.62
2022-12-14T23:24:02.377Z,58.09
2022-12-14T23:26:49.185Z,60.09
2022-12-14T23:29:35.916Z,61.64
2022-12-14T23:32:22.290Z,63.98
2022-12-14T23:35:09.110Z,60.28
2022-12-14T23:37:55.786Z,53.56
2022-12-14T23:40:42.442Z,54.99
2022-12-14T23:43:35.187Z,57.47
2022-12-14T23:46:23.366Z,59.53
2022-12-14T23:49:15.421Z,61.20
2022-12-14T23:52:02.668Z,62.15
2022-12-14T23:54:49.171Z,64.71
2022-12-14T23:57:36.189Z,61.11
